sensor_id;sensor_type;location;lat;lon;timestamp;P1;durP1;ratioP1;P2;durP2;ratioP2
23676;SDS011;31493;49.058;12.190;2023-07-24T00:01:51;15.68;;;8.20;;
23676;SDS011;31493;49.058;12.190;2023-07-24T00:04:18;14.65;;;7.43;;
23676;SDS011;31493;49.058;12.190;2023-07-24T00:06:47;12.25;;;7.72;;
23676;SDS011;31493;49.058;12.190;2023-07-24T00:09:14;13.15;;;7.30;;
23676;SDS011;31493;49.058;12.190;2023-07-24T00:11:41;14.88;;;7.68;;
23676;SDS011;31493;49.058;12.190;2023-07-24T00:14:08;12.85;;;7.88;;
23676;SDS011;31493;49.058;12.190;2023-07-24T00:16:35;13.57;;;7.57;;
23676;SDS011;31493;49.058;12.190;2023-07-24T00:19:02;10.20;;;7.28;;
23676;SDS011;31493;49.058;12.190;2023-07-24T00:21:29;11.02;;;7.32;;
23676;SDS011;31493;49.058;12.190;2023-07-24T00:23:57;18.42;;;7.72;;
23676;SDS011;31493;49.058;12.190;2023-07-24T00:26:24;11.65;;;8.15;;
23676;SDS011;31493;49.058;12.190;2023-07-24T00:28:51;14.45;;;7.40;;
23676;SDS011;31493;49.058;12.190;2023-07-24T00:31:18;12.77;;;7.85;;
23676;SDS011;31493;49.058;12.190;2023-07-24T00:33:45;13.32;;;7.50;;
23676;SDS011;31493;49.058;12.190;2023-07-24T00:36:12;9.65;;;7.32;;
23676;SDS011;31493;49.058;12.190;2023-07-24T00:38:39;13.38;;;7.70;;
23676;SDS011;31493;49.058;12.190;2023-07-24T00:41:08;11.30;;;7.85;;
23676;SDS011;31493;49.058;12.190;2023-07-24T00:43:35;12.35;;;7.47;;
23676;SDS011;31493;49.058;12.190;2023-07-24T00:46:02;12.68;;;7.70;;
23676;SDS011;31493;49.058;12.190;2023-07-24T00:48:29;14.95;;;7.97;;
23676;SDS011;31493;49.058;12.190;2023-07-24T00:50:56;11.60;;;7.40;;
23676;SDS011;31493;49.058;12.190;2023-07-24T00:53:23;11.30;;;7.18;;
23676;SDS011;31493;49.058;12.190;2023-07-24T00:55:51;20.42;;;7.80;;
23676;SDS011;31493;49.058;12.190;2023-07-24T00:58:19;14.15;;;7.65;;
23676;SDS011;31493;49.058;12.190;2023-07-24T01:00:46;14.70;;;7.70;;
23676;SDS011;31493;49.058;12.190;2023-07-24T01:03:14;11.02;;;7.35;;
23676;SDS011;31493;49.058;12.190;2023-07-24T01:05:41;12.68;;;7.45;;
23676;SDS011;31493;49.058;12.190;2023-07-24T01:08:08;12.88;;;7.80;;
23676;SDS011;31493;49.058;12.190;2023-07-24T01:10:35;10.73;;;7.50;;
23676;SDS011;31493;49.058;12.190;2023-07-24T01:13:03;11.57;;;7.32;;
23676;SDS011;31493;49.058;12.190;2023-07-24T01:15:37;15.05;;;8.20;;
23676;SDS011;31493;49.058;12.190;2023-07-24T01:18:09;13.73;;;7.78;;
23676;SDS011;31493;49.058;12.190;2023-07-24T01:20:37;10.32;;;7.13;;
23676;SDS011;31493;49.058;12.190;2023-07-24T01:23:21;12.05;;;6.85;;
23676;SDS011;31493;49.058;12.190;2023-07-24T01:25:57;14.15;;;7.53;;
23676;SDS011;31493;49.058;12.190;2023-07-24T01:28:25;13.82;;;7.63;;
23676;SDS011;31493;49.058;12.190;2023-07-24T01:30:53;14.18;;;8.02;;
23676;SDS011;31493;49.058;12.190;2023-07-24T01:33:21;17.23;;;7.38;;
23676;SDS011;31493;49.058;12.190;2023-07-24T01:35:48;13.15;;;7.78;;
23676;SDS011;31493;49.058;12.190;2023-07-24T01:38:19;15.07;;;7.80;;
23676;SDS011;31493;49.058;12.190;2023-07-24T01:40:48;14.80;;;8.07;;
23676;SDS011;31493;49.058;12.190;2023-07-24T01:43:16;15.40;;;8.30;;
23676;SDS011;31493;49.058;12.190;2023-07-24T01:45:43;13.35;;;8.05;;
23676;SDS011;31493;49.058;12.190;2023-07-24T01:48:10;14.98;;;8.15;;
23676;SDS011;31493;49.058;12.190;2023-07-24T01:50:38;13.40;;;7.53;;
23676;SDS011;31493;49.058;12.190;2023-07-24T01:53:04;16.77;;;8.25;;
23676;SDS011;31493;49.058;12.190;2023-07-24T01:55:32;14.35;;;8.38;;
23676;SDS011;31493;49.058;12.190;2023-07-24T01:57:58;11.65;;;8.30;;
23676;SDS011;31493;49.058;12.190;2023-07-24T02:00:27;13.55;;;7.97;;
23676;SDS011;31493;49.058;12.190;2023-07-24T02:02:54;12.88;;;7.68;;
23676;SDS011;31493;49.058;12.190;2023-07-24T02:05:22;12.68;;;7.95;;
23676;SDS011;31493;49.058;12.190;2023-07-24T02:07:49;12.37;;;8.00;;
23676;SDS011;31493;49.058;12.190;2023-07-24T02:10:16;11.48;;;7.25;;
23676;SDS011;31493;49.058;12.190;2023-07-24T02:12:43;11.38;;;7.40;;
23676;SDS011;31493;49.058;12.190;2023-07-24T02:15:10;11.40;;;7.95;;
23676;SDS011;31493;49.058;12.190;2023-07-24T02:17:38;13.82;;;7.78;;
23676;SDS011;31493;49.058;12.190;2023-07-24T02:20:08;13.98;;;7.90;;
23676;SDS011;31493;49.058;12.190;2023-07-24T02:22:35;10.50;;;7.80;;
23676;SDS011;31493;49.058;12.190;2023-07-24T02:25:02;10.18;;;7.70;;
23676;SDS011;31493;49.058;12.190;2023-07-24T02:27:30;11.30;;;7.40;;
23676;SDS011;31493;49.058;12.190;2023-07-24T02:30:00;14.10;;;7.93;;
23676;SDS011;31493;49.058;12.190;2023-07-24T02:32:27;13.65;;;8.07;;
23676;SDS011;31493;49.058;12.190;2023-07-24T02:34:55;12.80;;;8.02;;
23676;SDS011;31493;49.058;12.190;2023-07-24T02:37:22;13.90;;;7.93;;
23676;SDS011;31493;49.058;12.190;2023-07-24T02:39:51;11.23;;;7.80;;
23676;SDS011;31493;49.058;12.190;2023-07-24T02:42:18;14.02;;;7.97;;
23676;SDS011;31493;49.058;12.190;2023-07-24T02:44:45;16.92;;;7.40;;
23676;SDS011;31493;49.058;12.190;2023-07-24T02:47:12;11.98;;;7.88;;
23676;SDS011;31493;49.058;12.190;2023-07-24T02:49:39;11.73;;;7.45;;
23676;SDS011;31493;49.058;12.190;2023-07-24T02:52:07;13.23;;;7.88;;
23676;SDS011;31493;49.058;12.190;2023-07-24T02:54:34;11.65;;;8.20;;
23676;SDS011;31493;49.058;12.190;2023-07-24T02:57:01;14.65;;;7.70;;
23676;SDS011;31493;49.058;12.190;2023-07-24T02:59:29;11.55;;;7.55;;
23676;SDS011;31493;49.058;12.190;2023-07-24T03:01:57;10.98;;;7.85;;
23676;SDS011;31493;49.058;12.190;2023-07-24T03:04:24;9.93;;;7.30;;
23676;SDS011;31493;49.058;12.190;2023-07-24T03:06:51;9.88;;;7.25;;
23676;SDS011;31493;49.058;12.190;2023-07-24T03:09:20;11.73;;;7.30;;
23676;SDS011;31493;49.058;12.190;2023-07-24T03:11:47;11.38;;;7.80;;
23676;SDS011;31493;49.058;12.190;2023-07-24T03:14:14;11.25;;;7.57;;
23676;SDS011;31493;49.058;12.190;2023-07-24T03:16:41;12.25;;;7.72;;
23676;SDS011;31493;49.058;12.190;2023-07-24T03:19:08;14.82;;;7.75;;
23676;SDS011;31493;49.058;12.190;2023-07-24T03:21:35;10.77;;;7.63;;
23676;SDS011;31493;49.058;12.190;2023-07-24T03:24:02;11.98;;;8.13;;
23676;SDS011;31493;49.058;12.190;2023-07-24T03:26:30;11.30;;;7.82;;
23676;SDS011;31493;49.058;12.190;2023-07-24T03:28:57;11.95;;;7.75;;
23676;SDS011;31493;49.058;12.190;2023-07-24T03:31:24;9.95;;;6.85;;
23676;SDS011;31493;49.058;12.190;2023-07-24T03:33:51;9.60;;;6.82;;
23676;SDS011;31493;49.058;12.190;2023-07-24T03:36:18;12.27;;;7.25;;
23676;SDS011;31493;49.058;12.190;2023-07-24T03:38:45;9.10;;;7.10;;
23676;SDS011;31493;49.058;12.190;2023-07-24T03:41:12;12.55;;;7.60;;
23676;SDS011;31493;49.058;12.190;2023-07-24T03:43:40;11.23;;;7.38;;
23676;SDS011;31493;49.058;12.190;2023-07-24T03:46:08;10.55;;;7.35;;
23676;SDS011;31493;49.058;12.190;2023-07-24T03:48:35;12.38;;;7.50;;
23676;SDS011;31493;49.058;12.190;2023-07-24T03:51:02;10.15;;;7.10;;
23676;SDS011;31493;49.058;12.190;2023-07-24T03:53:30;10.80;;;6.97;;
23676;SDS011;31493;49.058;12.190;2023-07-24T03:55:57;10.32;;;7.20;;
23676;SDS011;31493;49.058;12.190;2023-07-24T03:58:24;10.27;;;7.18;;
23676;SDS011;31493;49.058;12.190;2023-07-24T04:00:52;9.85;;;7.35;;
23676;SDS011;31493;49.058;12.190;2023-07-24T04:03:19;11.05;;;7.47;;
23676;SDS011;31493;49.058;12.190;2023-07-24T04:05:46;14.43;;;7.82;;
23676;SDS011;31493;49.058;12.190;2023-07-24T04:08:13;11.15;;;7.47;;
23676;SDS011;31493;49.058;12.190;2023-07-24T04:10:40;15.52;;;8.05;;
23676;SDS011;31493;49.058;12.190;2023-07-24T04:13:07;13.80;;;7.25;;
23676;SDS011;31493;49.058;12.190;2023-07-24T04:15:34;14.90;;;8.32;;
23676;SDS011;31493;49.058;12.190;2023-07-24T04:18:03;14.07;;;8.35;;
23676;SDS011;31493;49.058;12.190;2023-07-24T04:20:30;13.02;;;9.10;;
23676;SDS011;31493;49.058;12.190;2023-07-24T04:22:57;12.27;;;7.95;;
23676;SDS011;31493;49.058;12.190;2023-07-24T04:25:24;13.80;;;8.13;;
23676;SDS011;31493;49.058;12.190;2023-07-24T04:27:51;15.13;;;8.25;;
23676;SDS011;31493;49.058;12.190;2023-07-24T04:30:18;13.23;;;8.57;;
23676;SDS011;31493;49.058;12.190;2023-07-24T04:32:46;17.15;;;8.52;;
23676;SDS011;31493;49.058;12.190;2023-07-24T04:35:14;13.05;;;7.95;;
23676;SDS011;31493;49.058;12.190;2023-07-24T04:37:41;13.38;;;7.82;;
23676;SDS011;31493;49.058;12.190;2023-07-24T04:40:08;16.70;;;7.80;;
23676;SDS011;31493;49.058;12.190;2023-07-24T04:42:36;9.95;;;7.50;;
23676;SDS011;31493;49.058;12.190;2023-07-24T04:45:03;13.35;;;7.90;;
23676;SDS011;31493;49.058;12.190;2023-07-24T04:47:31;12.18;;;8.10;;
23676;SDS011;31493;49.058;12.190;2023-07-24T04:49:58;14.60;;;7.65;;
23676;SDS011;31493;49.058;12.190;2023-07-24T04:52:26;12.07;;;7.90;;
23676;SDS011;31493;49.058;12.190;2023-07-24T04:54:53;12.15;;;8.38;;
23676;SDS011;31493;49.058;12.190;2023-07-24T04:57:20;15.10;;;7.55;;
23676;SDS011;31493;49.058;12.190;2023-07-24T04:59:47;12.82;;;7.90;;
23676;SDS011;31493;49.058;12.190;2023-07-24T05:02:14;14.40;;;8.02;;
23676;SDS011;31493;49.058;12.190;2023-07-24T05:04:41;12.52;;;7.50;;
23676;SDS011;31493;49.058;12.190;2023-07-24T05:07:08;10.82;;;7.47;;
23676;SDS011;31493;49.058;12.190;2023-07-24T05:09:37;11.55;;;8.18;;
23676;SDS011;31493;49.058;12.190;2023-07-24T05:12:04;13.23;;;8.43;;
23676;SDS011;31493;49.058;12.190;2023-07-24T05:14:32;13.98;;;7.90;;
23676;SDS011;31493;49.058;12.190;2023-07-24T05:16:59;11.48;;;7.47;;
23676;SDS011;31493;49.058;12.190;2023-07-24T05:19:26;15.13;;;8.07;;
23676;SDS011;31493;49.058;12.190;2023-07-24T05:21:53;12.48;;;8.20;;
23676;SDS011;31493;49.058;12.190;2023-07-24T05:24:20;10.75;;;7.57;;
23676;SDS011;31493;49.058;12.190;2023-07-24T05:26:48;12.15;;;7.55;;
23676;SDS011;31493;49.058;12.190;2023-07-24T05:29:15;11.68;;;7.65;;
23676;SDS011;31493;49.058;12.190;2023-07-24T05:31:42;10.98;;;7.93;;
23676;SDS011;31493;49.058;12.190;2023-07-24T05:34:09;10.80;;;7.88;;
23676;SDS011;31493;49.058;12.190;2023-07-24T05:36:36;12.52;;;7.65;;
23676;SDS011;31493;49.058;12.190;2023-07-24T05:39:03;11.55;;;7.70;;
23676;SDS011;31493;49.058;12.190;2023-07-24T05:41:30;10.98;;;7.95;;
23676;SDS011;31493;49.058;12.190;2023-07-24T05:43:59;11.23;;;7.45;;
23676;SDS011;31493;49.058;12.190;2023-07-24T05:46:26;14.00;;;7.60;;
23676;SDS011;31493;49.058;12.190;2023-07-24T05:48:53;10.30;;;7.25;;
23676;SDS011;31493;49.058;12.190;2023-07-24T05:51:20;11.10;;;7.38;;
23676;SDS011;31493;49.058;12.190;2023-07-24T05:53:47;12.60;;;7.10;;
23676;SDS011;31493;49.058;12.190;2023-07-24T05:56:14;12.85;;;8.13;;
23676;SDS011;31493;49.058;12.190;2023-07-24T05:58:41;9.70;;;7.22;;
23676;SDS011;31493;49.058;12.190;2023-07-24T06:01:09;11.93;;;8.02;;
23676;SDS011;31493;49.058;12.190;2023-07-24T06:03:36;14.82;;;7.57;;
23676;SDS011;31493;49.058;12.190;2023-07-24T06:06:04;17.43;;;8.33;;
23676;SDS011;31493;49.058;12.190;2023-07-24T06:08:31;11.52;;;7.75;;
23676;SDS011;31493;49.058;12.190;2023-07-24T06:10:58;12.25;;;7.18;;
23676;SDS011;31493;49.058;12.190;2023-07-24T06:13:25;11.27;;;7.15;;
23676;SDS011;31493;49.058;12.190;2023-07-24T06:15:52;11.65;;;7.65;;
23676;SDS011;31493;49.058;12.190;2023-07-24T06:18:20;11.18;;;8.00;;
23676;SDS011;31493;49.058;12.190;2023-07-24T06:20:48;11.70;;;7.78;;
23676;SDS011;31493;49.058;12.190;2023-07-24T06:23:19;14.55;;;8.18;;
23676;SDS011;31493;49.058;12.190;2023-07-24T06:25:46;14.30;;;7.85;;
23676;SDS011;31493;49.058;12.190;2023-07-24T06:28:13;12.05;;;7.65;;
23676;SDS011;31493;49.058;12.190;2023-07-24T06:30:40;20.95;;;7.85;;
23676;SDS011;31493;49.058;12.190;2023-07-24T06:33:07;14.70;;;8.25;;
23676;SDS011;31493;49.058;12.190;2023-07-24T06:35:36;12.88;;;7.90;;
23676;SDS011;31493;49.058;12.190;2023-07-24T06:38:03;11.27;;;7.68;;
23676;SDS011;31493;49.058;12.190;2023-07-24T06:40:30;13.15;;;8.80;;
23676;SDS011;31493;49.058;12.190;2023-07-24T06:42:57;14.48;;;9.27;;
23676;SDS011;31493;49.058;12.190;2023-07-24T06:45:24;14.13;;;8.15;;
23676;SDS011;31493;49.058;12.190;2023-07-24T06:47:51;12.63;;;8.60;;
23676;SDS011;31493;49.058;12.190;2023-07-24T06:50:18;16.33;;;8.75;;
23676;SDS011;31493;49.058;12.190;2023-07-24T06:52:46;14.52;;;8.63;;
23676;SDS011;31493;49.058;12.190;2023-07-24T06:55:16;15.27;;;8.65;;
23676;SDS011;31493;49.058;12.190;2023-07-24T06:57:43;14.25;;;8.57;;
23676;SDS011;31493;49.058;12.190;2023-07-24T07:00:10;16.02;;;8.80;;
23676;SDS011;31493;49.058;12.190;2023-07-24T07:02:38;11.93;;;8.25;;
23676;SDS011;31493;49.058;12.190;2023-07-24T07:05:06;16.80;;;9.20;;
23676;SDS011;31493;49.058;12.190;2023-07-24T07:07:33;12.50;;;8.30;;
23676;SDS011;31493;49.058;12.190;2023-07-24T07:10:01;12.93;;;8.95;;
23676;SDS011;31493;49.058;12.190;2023-07-24T07:12:29;13.85;;;8.32;;
23676;SDS011;31493;49.058;12.190;2023-07-24T07:14:56;19.02;;;8.65;;
23676;SDS011;31493;49.058;12.190;2023-07-24T07:17:23;14.27;;;8.95;;
23676;SDS011;31493;49.058;12.190;2023-07-24T07:19:50;16.55;;;9.40;;
23676;SDS011;31493;49.058;12.190;2023-07-24T07:22:17;19.92;;;9.07;;
23676;SDS011;31493;49.058;12.190;2023-07-24T07:24:44;16.75;;;9.15;;
23676;SDS011;31493;49.058;12.190;2023-07-24T07:27:13;15.80;;;9.45;;
23676;SDS011;31493;49.058;12.190;2023-07-24T07:29:42;13.25;;;8.13;;
23676;SDS011;31493;49.058;12.190;2023-07-24T07:32:09;18.73;;;8.77;;
23676;SDS011;31493;49.058;12.190;2023-07-24T07:34:36;18.17;;;9.38;;
23676;SDS011;31493;49.058;12.190;2023-07-24T07:37:04;13.35;;;9.57;;
23676;SDS011;31493;49.058;12.190;2023-07-24T07:39:31;17.15;;;9.23;;
23676;SDS011;31493;49.058;12.190;2023-07-24T07:41:59;12.80;;;8.90;;
23676;SDS011;31493;49.058;12.190;2023-07-24T07:44:27;19.75;;;9.45;;
23676;SDS011;31493;49.058;12.190;2023-07-24T07:46:54;14.13;;;9.30;;
23676;SDS011;31493;49.058;12.190;2023-07-24T07:49:21;14.85;;;9.40;;
23676;SDS011;31493;49.058;12.190;2023-07-24T07:51:48;17.63;;;9.48;;
23676;SDS011;31493;49.058;12.190;2023-07-24T07:54:15;16.38;;;9.32;;
23676;SDS011;31493;49.058;12.190;2023-07-24T07:56:42;12.85;;;8.60;;
23676;SDS011;31493;49.058;12.190;2023-07-24T07:59:09;15.85;;;8.93;;
23676;SDS011;31493;49.058;12.190;2023-07-24T08:01:37;14.00;;;9.00;;
23676;SDS011;31493;49.058;12.190;2023-07-24T08:04:05;14.80;;;9.65;;
23676;SDS011;31493;49.058;12.190;2023-07-24T08:06:32;16.85;;;9.57;;
23676;SDS011;31493;49.058;12.190;2023-07-24T08:08:59;20.02;;;10.27;;
23676;SDS011;31493;49.058;12.190;2023-07-24T08:11:26;18.63;;;9.45;;
23676;SDS011;31493;49.058;12.190;2023-07-24T08:13:54;17.67;;;9.18;;
23676;SDS011;31493;49.058;12.190;2023-07-24T08:16:21;22.45;;;9.68;;
23676;SDS011;31493;49.058;12.190;2023-07-24T08:18:49;18.92;;;10.15;;
23676;SDS011;31493;49.058;12.190;2023-07-24T08:21:16;19.25;;;9.55;;
23676;SDS011;31493;49.058;12.190;2023-07-24T08:23:43;21.42;;;10.32;;
23676;SDS011;31493;49.058;12.190;2023-07-24T08:26:10;17.70;;;9.77;;
23676;SDS011;31493;49.058;12.190;2023-07-24T08:28:37;16.45;;;9.95;;
23676;SDS011;31493;49.058;12.190;2023-07-24T08:31:07;17.00;;;10.30;;
23676;SDS011;31493;49.058;12.190;2023-07-24T08:33:34;15.60;;;10.80;;
23676;SDS011;31493;49.058;12.190;2023-07-24T08:36:04;16.73;;;10.88;;
23676;SDS011;31493;49.058;12.190;2023-07-24T08:38:32;19.92;;;10.88;;
23676;SDS011;31493;49.058;12.190;2023-07-24T08:41:00;14.05;;;9.88;;
23676;SDS011;31493;49.058;12.190;2023-07-24T08:43:30;16.25;;;10.55;;
23676;SDS011;31493;49.058;12.190;2023-07-24T08:46:00;20.90;;;10.35;;
23676;SDS011;31493;49.058;12.190;2023-07-24T08:48:29;17.20;;;10.23;;
23676;SDS011;31493;49.058;12.190;2023-07-24T08:50:59;15.63;;;10.20;;
23676;SDS011;31493;49.058;12.190;2023-07-24T08:53:28;18.40;;;10.82;;
23676;SDS011;31493;49.058;12.190;2023-07-24T08:55:56;17.60;;;10.68;;
23676;SDS011;31493;49.058;12.190;2023-07-24T08:58:24;15.63;;;10.18;;
23676;SDS011;31493;49.058;12.190;2023-07-24T09:00:51;19.65;;;10.15;;
23676;SDS011;31493;49.058;12.190;2023-07-24T09:03:18;17.13;;;9.70;;
23676;SDS011;31493;49.058;12.190;2023-07-24T09:05:45;20.17;;;10.73;;
23676;SDS011;31493;49.058;12.190;2023-07-24T09:08:12;9.95;;;6.60;;
23676;SDS011;31493;49.058;12.190;2023-07-24T09:10:41;14.57;;;8.10;;
23676;SDS011;31493;49.058;12.190;2023-07-24T09:13:11;13.80;;;9.20;;
23676;SDS011;31493;49.058;12.190;2023-07-24T09:15:39;13.98;;;9.05;;
23676;SDS011;31493;49.058;12.190;2023-07-24T09:18:06;16.48;;;9.05;;
23676;SDS011;31493;49.058;12.190;2023-07-24T09:20:37;15.82;;;9.13;;
23676;SDS011;31493;49.058;12.190;2023-07-24T09:23:06;15.35;;;9.18;;
23676;SDS011;31493;49.058;12.190;2023-07-24T09:25:34;13.47;;;9.30;;
23676;SDS011;31493;49.058;12.190;2023-07-24T09:28:10;14.20;;;9.05;;
23676;SDS011;31493;49.058;12.190;2023-07-24T09:30:37;16.48;;;7.95;;
23676;SDS011;31493;49.058;12.190;2023-07-24T09:33:05;12.30;;;7.32;;
23676;SDS011;31493;49.058;12.190;2023-07-24T09:35:32;11.90;;;7.70;;
23676;SDS011;31493;49.058;12.190;2023-07-24T09:38:03;11.93;;;8.00;;
23676;SDS011;31493;49.058;12.190;2023-07-24T09:40:38;11.52;;;7.88;;
23676;SDS011;31493;49.058;12.190;2023-07-24T09:43:18;11.48;;;7.45;;
23676;SDS011;31493;49.058;12.190;2023-07-24T09:45:46;13.25;;;7.20;;
23676;SDS011;31493;49.058;12.190;2023-07-24T09:48:14;11.18;;;7.07;;
23676;SDS011;31493;49.058;12.190;2023-07-24T09:50:43;11.10;;;7.22;;
23676;SDS011;31493;49.058;12.190;2023-07-24T09:53:12;10.18;;;7.30;;
23676;SDS011;31493;49.058;12.190;2023-07-24T09:55:47;13.18;;;6.75;;
23676;SDS011;31493;49.058;12.190;2023-07-24T09:58:19;10.20;;;6.85;;
23676;SDS011;31493;49.058;12.190;2023-07-24T10:00:48;11.18;;;6.53;;
23676;SDS011;31493;49.058;12.190;2023-07-24T10:03:15;9.53;;;6.60;;
23676;SDS011;31493;49.058;12.190;2023-07-24T10:05:43;8.90;;;5.68;;
23676;SDS011;31493;49.058;12.190;2023-07-24T10:08:11;10.32;;;5.80;;
23676;SDS011;31493;49.058;12.190;2023-07-24T10:10:39;8.68;;;5.70;;
23676;SDS011;31493;49.058;12.190;2023-07-24T10:13:06;8.25;;;5.15;;
23676;SDS011;31493;49.058;12.190;2023-07-24T10:15:37;9.35;;;4.97;;
23676;SDS011;31493;49.058;12.190;2023-07-24T10:18:06;10.32;;;6.22;;
23676;SDS011;31493;49.058;12.190;2023-07-24T10:20:35;11.35;;;5.07;;
23676;SDS011;31493;49.058;12.190;2023-07-24T10:23:02;6.43;;;5.15;;
23676;SDS011;31493;49.058;12.190;2023-07-24T10:25:30;10.80;;;5.10;;
23676;SDS011;31493;49.058;12.190;2023-07-24T10:28:01;6.70;;;4.70;;
23676;SDS011;31493;49.058;12.190;2023-07-24T10:30:33;7.47;;;4.97;;
23676;SDS011;31493;49.058;12.190;2023-07-24T10:33:07;8.00;;;5.45;;
23676;SDS011;31493;49.058;12.190;2023-07-24T10:35:39;6.55;;;4.63;;
23676;SDS011;31493;49.058;12.190;2023-07-24T10:38:07;7.00;;;5.05;;
23676;SDS011;31493;49.058;12.190;2023-07-24T10:40:34;6.55;;;4.72;;
23676;SDS011;31493;49.058;12.190;2023-07-24T10:43:04;8.30;;;5.32;;
23676;SDS011;31493;49.058;12.190;2023-07-24T10:45:38;6.03;;;4.45;;
23676;SDS011;31493;49.058;12.190;2023-07-24T10:48:08;6.50;;;4.63;;
23676;SDS011;31493;49.058;12.190;2023-07-24T10:50:37;6.43;;;4.30;;
23676;SDS011;31493;49.058;12.190;2023-07-24T10:53:05;6.20;;;4.63;;
23676;SDS011;31493;49.058;12.190;2023-07-24T10:55:32;6.90;;;4.45;;
23676;SDS011;31493;49.058;12.190;2023-07-24T10:57:59;7.28;;;5.10;;
23676;SDS011;31493;49.058;12.190;2023-07-24T11:00:26;7.07;;;5.05;;
23676;SDS011;31493;49.058;12.190;2023-07-24T11:02:54;7.65;;;4.50;;
23676;SDS011;31493;49.058;12.190;2023-07-24T11:05:22;7.32;;;4.70;;
23676;SDS011;31493;49.058;12.190;2023-07-24T11:07:49;9.57;;;5.30;;
23676;SDS011;31493;49.058;12.190;2023-07-24T11:10:17;8.05;;;4.97;;
23676;SDS011;31493;49.058;12.190;2023-07-24T11:12:45;7.90;;;5.57;;
23676;SDS011;31493;49.058;12.190;2023-07-24T11:15:12;8.80;;;5.03;;
23676;SDS011;31493;49.058;12.190;2023-07-24T11:17:40;9.15;;;5.32;;
23676;SDS011;31493;49.058;12.190;2023-07-24T11:20:08;7.32;;;5.07;;
23676;SDS011;31493;49.058;12.190;2023-07-24T11:22:42;7.35;;;4.78;;
23676;SDS011;31493;49.058;12.190;2023-07-24T11:25:10;7.25;;;5.03;;
23676;SDS011;31493;49.058;12.190;2023-07-24T11:27:38;7.32;;;5.05;;
23676;SDS011;31493;49.058;12.190;2023-07-24T11:30:08;9.45;;;5.38;;
23676;SDS011;31493;49.058;12.190;2023-07-24T11:35:04;7.35;;;4.90;;
23676;SDS011;31493;49.058;12.190;2023-07-24T11:37:33;8.15;;;4.82;;
23676;SDS011;31493;49.058;12.190;2023-07-24T11:42:36;6.72;;;5.05;;
23676;SDS011;31493;49.058;12.190;2023-07-24T11:45:04;6.22;;;4.60;;
23676;SDS011;31493;49.058;12.190;2023-07-24T11:47:40;7.10;;;5.22;;
23676;SDS011;31493;49.058;12.190;2023-07-24T11:50:08;7.30;;;5.10;;
23676;SDS011;31493;49.058;12.190;2023-07-24T11:52:38;8.25;;;5.28;;
23676;SDS011;31493;49.058;12.190;2023-07-24T11:55:08;7.93;;;5.00;;
23676;SDS011;31493;49.058;12.190;2023-07-24T11:57:35;8.02;;;5.20;;
23676;SDS011;31493;49.058;12.190;2023-07-24T12:00:03;7.70;;;5.10;;
23676;SDS011;31493;49.058;12.190;2023-07-24T12:02:32;10.10;;;5.13;;
23676;SDS011;31493;49.058;12.190;2023-07-24T12:05:00;7.30;;;4.97;;
23676;SDS011;31493;49.058;12.190;2023-07-24T12:07:28;8.90;;;5.00;;
23676;SDS011;31493;49.058;12.190;2023-07-24T12:09:58;7.70;;;5.53;;
23676;SDS011;31493;49.058;12.190;2023-07-24T12:12:27;10.48;;;5.10;;
23676;SDS011;31493;49.058;12.190;2023-07-24T12:15:03;8.70;;;5.53;;
23676;SDS011;31493;49.058;12.190;2023-07-24T12:17:31;9.18;;;5.57;;
23676;SDS011;31493;49.058;12.190;2023-07-24T12:19:58;9.20;;;5.53;;
23676;SDS011;31493;49.058;12.190;2023-07-24T12:22:25;9.15;;;5.78;;
23676;SDS011;31493;49.058;12.190;2023-07-24T12:24:52;8.45;;;5.88;;
23676;SDS011;31493;49.058;12.190;2023-07-24T12:27:19;14.10;;;6.13;;
23676;SDS011;31493;49.058;12.190;2023-07-24T12:29:48;9.07;;;5.90;;
23676;SDS011;31493;49.058;12.190;2023-07-24T12:32:15;9.00;;;5.97;;
23676;SDS011;31493;49.058;12.190;2023-07-24T12:34:42;9.48;;;6.03;;
23676;SDS011;31493;49.058;12.190;2023-07-24T12:37:09;11.20;;;6.35;;
23676;SDS011;31493;49.058;12.190;2023-07-24T12:39:36;8.65;;;5.93;;
23676;SDS011;31493;49.058;12.190;2023-07-24T12:42:03;10.52;;;6.15;;
23676;SDS011;31493;49.058;12.190;2023-07-24T12:44:32;8.48;;;6.20;;
23676;SDS011;31493;49.058;12.190;2023-07-24T12:47:01;11.38;;;7.45;;
23676;SDS011;31493;49.058;12.190;2023-07-24T12:49:28;12.85;;;8.15;;
23676;SDS011;31493;49.058;12.190;2023-07-24T12:51:55;14.05;;;8.27;;
23676;SDS011;31493;49.058;12.190;2023-07-24T12:54:22;10.43;;;7.28;;
23676;SDS011;31493;49.058;12.190;2023-07-24T12:56:49;11.82;;;8.30;;
23676;SDS011;31493;49.058;12.190;2023-07-24T12:59:17;14.13;;;8.52;;
23676;SDS011;31493;49.058;12.190;2023-07-24T13:01:44;17.63;;;8.70;;
23676;SDS011;31493;49.058;12.190;2023-07-24T13:04:13;14.52;;;8.95;;
23676;SDS011;31493;49.058;12.190;2023-07-24T13:06:40;16.17;;;9.52;;
23676;SDS011;31493;49.058;12.190;2023-07-24T13:09:07;15.48;;;8.95;;
23676;SDS011;31493;49.058;12.190;2023-07-24T13:11:34;15.02;;;9.00;;
23676;SDS011;31493;49.058;12.190;2023-07-24T13:14:02;16.30;;;8.85;;
23676;SDS011;31493;49.058;12.190;2023-07-24T13:16:29;14.55;;;8.65;;
23676;SDS011;31493;49.058;12.190;2023-07-24T13:18:56;12.05;;;8.30;;
23676;SDS011;31493;49.058;12.190;2023-07-24T13:21:26;15.82;;;8.10;;
23676;SDS011;31493;49.058;12.190;2023-07-24T13:23:53;13.35;;;7.63;;
23676;SDS011;31493;49.058;12.190;2023-07-24T13:26:21;15.25;;;7.88;;
23676;SDS011;31493;49.058;12.190;2023-07-24T13:28:48;12.82;;;7.53;;
23676;SDS011;31493;49.058;12.190;2023-07-24T13:31:16;15.00;;;7.93;;
23676;SDS011;31493;49.058;12.190;2023-07-24T13:36:11;14.80;;;6.85;;
23676;SDS011;31493;49.058;12.190;2023-07-24T13:38:40;12.68;;;7.25;;
23676;SDS011;31493;49.058;12.190;2023-07-24T13:41:07;10.50;;;7.28;;
23676;SDS011;31493;49.058;12.190;2023-07-24T13:43:35;9.57;;;6.80;;
23676;SDS011;31493;49.058;12.190;2023-07-24T13:46:02;11.07;;;7.55;;
23676;SDS011;31493;49.058;12.190;2023-07-24T13:48:29;10.30;;;6.95;;
23676;SDS011;31493;49.058;12.190;2023-07-24T13:50:56;10.50;;;7.13;;
23676;SDS011;31493;49.058;12.190;2023-07-24T13:53:23;11.93;;;7.40;;
23676;SDS011;31493;49.058;12.190;2023-07-24T13:55:52;8.02;;;6.35;;
23676;SDS011;31493;49.058;12.190;2023-07-24T13:58:20;10.65;;;6.63;;
23676;SDS011;31493;49.058;12.190;2023-07-24T14:00:47;10.63;;;6.95;;
23676;SDS011;31493;49.058;12.190;2023-07-24T14:03:14;11.50;;;6.45;;
23676;SDS011;31493;49.058;12.190;2023-07-24T14:05:41;11.50;;;6.95;;
23676;SDS011;31493;49.058;12.190;2023-07-24T14:08:08;9.80;;;6.72;;
23676;SDS011;31493;49.058;12.190;2023-07-24T14:10:35;12.65;;;6.68;;
23676;SDS011;31493;49.058;12.190;2023-07-24T14:13:03;9.65;;;6.80;;
23676;SDS011;31493;49.058;12.190;2023-07-24T14:15:30;9.25;;;6.10;;
23676;SDS011;31493;49.058;12.190;2023-07-24T14:17:57;9.50;;;6.55;;
23676;SDS011;31493;49.058;12.190;2023-07-24T14:20:25;8.38;;;6.20;;
23676;SDS011;31493;49.058;12.190;2023-07-24T14:22:52;9.57;;;6.82;;
23676;SDS011;31493;49.058;12.190;2023-07-24T14:25:19;8.90;;;6.30;;
23676;SDS011;31493;49.058;12.190;2023-07-24T14:27:46;9.13;;;6.15;;
23676;SDS011;31493;49.058;12.190;2023-07-24T14:30:14;9.00;;;6.28;;
23676;SDS011;31493;49.058;12.190;2023-07-24T14:32:41;9.23;;;6.10;;
23676;SDS011;31493;49.058;12.190;2023-07-24T14:35:08;8.38;;;6.13;;